Time;durP1;ratioP1;P1;durP2;ratioP2;P2;SDS_P1;SDS_P2;PMS_P1;PMS_P2;Temp;Humidity;BMP_temperature;BMP_pressure;BME280_temperature;BME280_humidity;BME280_pressure;Samples;Min_cycle;Max_cycle;Signal;HPM_P1;HPM_P2
2022/01/24 00:01:24;;;;;;;22.25;12.13;;;;;;;;;;5076509;28;20037;-73
2022/01/24 00:03:56;;;;;;;28.40;14.70;;;;;;;;;;5060599;28;20056;-73
2022/01/24 00:06:21;;;;;;;26.33;13.10;;;;;;;;;;5077052;28;20481;-73
2022/01/24 00:08:49;;;;;;;27.88;13.52;;;;;;;;;;5061027;28;20048;-73
2022/01/24 00:11:18;;;;;;;22.60;12.70;;;;;;;;;;5060862;28;20063;-73
2022/01/24 00:27:23;;;;;;;26.27;13.63;;;;;;;;;;5058188;28;20047;-73
2022/01/24 00:29:48;;;;;;;28.58;14.45;;;;;;;;;;5076375;28;20036;-73
2022/01/24 00:32:14;;;;;;;29.33;14.93;;;;;;;;;;5060885;28;20044;-73
2022/01/24 00:34:40;;;;;;;28.15;14.60;;;;;;;;;;5060966;28;20049;-73
2022/01/24 00:37:06;;;;;;;33.17;15.85;;;;;;;;;;5042123;28;20171;-73
2022/01/24 00:39:31;;;;;;;27.38;14.20;;;;;;;;;;5059551;28;20028;-73
2022/01/24 00:47:04;;;;;;;27.58;14.13;;;;;;;;;;5060592;28;20485;-73
2022/01/24 00:54:52;;;;;;;24.13;12.20;;;;;;;;;;5059339;28;20040;-73
2022/01/24 00:57:21;;;;;;;21.85;11.95;;;;;;;;;;5059364;28;20052;-73
2022/01/24 00:59:48;;;;;;;23.35;12.52;;;;;;;;;;5041583;28;20036;-73
2022/01/24 01:02:14;;;;;;;19.98;11.63;;;;;;;;;;5060401;28;20450;-73
2022/01/24 01:07:07;;;;;;;24.05;13.10;;;;;;;;;;5060064;28;20043;-73
2022/01/24 01:20:42;;;;;;;26.13;12.55;;;;;;;;;;5059359;28;20036;-73
2022/01/24 01:23:08;;;;;;;22.75;11.93;;;;;;;;;;5060303;28;20035;-73
2022/01/24 01:25:36;;;;;;;32.53;13.10;;;;;;;;;;5076325;28;20037;-73
2022/01/24 01:28:02;;;;;;;20.70;11.45;;;;;;;;;;5060062;28;20067;-73
2022/01/24 01:30:36;;;;;;;22.77;12.70;;;;;;;;;;5075793;28;20064;-73
2022/01/24 01:33:17;;;;;;;19.30;11.52;;;;;;;;;;5052619;28;20043;-74
2022/01/24 01:57:01;;;;;;;27.05;14.30;;;;;;;;;;5063182;28;20516;-74
2022/01/24 01:59:27;;;;;;;29.63;13.68;;;;;;;;;;5062153;28;20621;-73
2022/01/24 02:01:53;;;;;;;26.08;12.93;;;;;;;;;;5078484;28;20942;-73
2022/01/24 02:04:19;;;;;;;28.05;14.32;;;;;;;;;;5044903;28;20066;-73
2022/01/24 02:06:44;;;;;;;29.20;13.30;;;;;;;;;;5061861;28;20040;-73
2022/01/24 02:09:11;;;;;;;24.38;13.15;;;;;;;;;;5066578;28;20067;-74
2022/01/24 02:11:37;;;;;;;27.70;12.82;;;;;;;;;;5062010;28;20508;-73
2022/01/24 02:14:15;;;;;;;25.13;12.75;;;;;;;;;;5063422;28;20029;-73
2022/01/24 02:17:03;;;;;;;23.23;11.85;;;;;;;;;;5062288;28;20554;-74
2022/01/24 02:19:36;;;;;;;23.67;12.77;;;;;;;;;;5049360;28;20053;-74
2022/01/24 02:24:41;;;;;;;27.40;14.52;;;;;;;;;;5064120;28;20076;-73
2022/01/24 02:27:08;;;;;;;28.13;16.98;;;;;;;;;;5054903;28;20032;-74
2022/01/24 02:30:13;;;;;;;29.38;17.20;;;;;;;;;;5061847;28;20478;-73
2022/01/24 02:32:39;;;;;;;24.80;14.88;;;;;;;;;;5078337;28;20045;-74
2022/01/24 02:35:07;;;;;;;36.25;17.55;;;;;;;;;;5061772;28;20451;-74
2022/01/24 02:37:33;;;;;;;22.20;12.40;;;;;;;;;;5060667;28;20044;-74
2022/01/24 02:53:26;;;;;;;21.92;12.25;;;;;;;;;;5060137;28;20041;-74
2022/01/24 02:55:51;;;;;;;22.90;13.40;;;;;;;;;;5060960;28;20062;-74
2022/01/24 02:58:17;;;;;;;21.73;12.40;;;;;;;;;;5058725;28;20942;-74
2022/01/24 03:00:45;;;;;;;26.50;12.32;;;;;;;;;;5059979;28;20097;-74
2022/01/24 03:03:11;;;;;;;22.40;12.35;;;;;;;;;;5061323;28;20032;-74
2022/01/24 03:05:37;;;;;;;26.58;12.82;;;;;;;;;;5062440;28;20402;-74
2022/01/24 03:08:02;;;;;;;31.58;13.40;;;;;;;;;;5062528;28;20036;-74
2022/01/24 03:10:36;;;;;;;24.25;11.23;;;;;;;;;;5058813;28;20041;-74
2022/01/24 03:15:41;;;;;;;25.10;11.20;;;;;;;;;;5060892;28;20036;-74
2022/01/24 03:18:07;;;;;;;33.28;11.40;;;;;;;;;;5044430;28;20076;-74
2022/01/24 03:20:33;;;;;;;29.27;11.60;;;;;;;;;;5061678;28;20047;-74
2022/01/24 03:23:00;;;;;;;57.03;11.55;;;;;;;;;;5060027;28;20039;-74
2022/01/24 03:25:26;;;;;;;19.85;10.27;;;;;;;;;;5061189;28;20103;-74
2022/01/24 03:27:52;;;;;;;20.25;9.98;;;;;;;;;;5061648;28;20036;-74
2022/01/24 03:30:18;;;;;;;38.10;9.38;;;;;;;;;;5043852;28;20032;-74
2022/01/24 03:32:43;;;;;;;14.95;9.30;;;;;;;;;;5061528;28;20083;-74
2022/01/24 03:35:09;;;;;;;28.55;9.70;;;;;;;;;;5060935;28;20058;-74
2022/01/24 03:37:35;;;;;;;38.13;9.55;;;;;;;;;;5060242;28;20495;-74
2022/01/24 03:40:04;;;;;;;38.15;10.57;;;;;;;;;;5061908;28;20048;-74
2022/01/24 03:42:30;;;;;;;40.25;10.23;;;;;;;;;;5044055;28;20074;-73
2022/01/24 03:44:59;;;;;;;25.88;9.60;;;;;;;;;;5059455;28;20223;-74
2022/01/24 03:50:06;;;;;;;38.25;9.82;;;;;;;;;;5061742;28;20036;-73
2022/01/24 03:52:31;;;;;;;28.17;10.18;;;;;;;;;;5061543;28;20055;-74
2022/01/24 03:54:59;;;;;;;22.48;9.68;;;;;;;;;;5042528;28;20055;-73
2022/01/24 03:57:25;;;;;;;20.73;9.65;;;;;;;;;;5060307;28;20068;-74
2022/01/24 03:59:51;;;;;;;23.58;9.57;;;;;;;;;;5060377;28;20044;-74
2022/01/24 04:02:20;;;;;;;19.35;8.90;;;;;;;;;;5061667;28;20036;-74
2022/01/24 04:04:46;;;;;;;38.83;10.18;;;;;;;;;;5060260;28;20036;-73
2022/01/24 04:07:12;;;;;;;24.15;8.10;;;;;;;;;;5042712;28;20044;-74
2022/01/24 04:09:39;;;;;;;21.80;9.13;;;;;;;;;;5043553;28;20083;-74
2022/01/24 04:12:07;;;;;;;12.85;8.30;;;;;;;;;;5059594;28;20064;-74
2022/01/24 04:22:45;;;;;;;17.92;7.97;;;;;;;;;;5038181;28;20040;-74
2022/01/24 04:25:14;;;;;;;23.92;8.35;;;;;;;;;;5029970;28;20051;-74
2022/01/24 04:27:40;;;;;;;33.70;8.20;;;;;;;;;;5021690;28;20145;-74
2022/01/24 04:30:07;;;;;;;26.95;7.80;;;;;;;;;;5061286;28;20547;-74
2022/01/24 04:32:32;;;;;;;14.00;7.47;;;;;;;;;;5059769;28;20040;-74
2022/01/24 04:34:58;;;;;;;26.60;8.35;;;;;;;;;;5059868;28;20032;-74
2022/01/24 04:37:23;;;;;;;30.40;8.25;;;;;;;;;;5059856;28;20040;-74
2022/01/24 04:39:49;;;;;;;39.75;10.23;;;;;;;;;;5059073;28;20039;-75
2022/01/24 04:42:24;;;;;;;20.70;7.78;;;;;;;;;;5060869;28;20075;-74
2022/01/24 04:47:37;;;;;;;34.17;9.05;;;;;;;;;;5059542;28;20045;-74
2022/01/24 04:53:06;;;;;;;38.65;8.63;;;;;;;;;;5059678;28;20495;-74
2022/01/24 04:55:32;;;;;;;68.50;10.40;;;;;;;;;;5059668;28;20405;-74
2022/01/24 04:57:57;;;;;;;75.90;11.38;;;;;;;;;;5058479;28;20032;-74
2022/01/24 05:00:23;;;;;;;72.07;12.23;;;;;;;;;;5057862;28;20401;-74
2022/01/24 05:02:48;;;;;;;76.95;10.40;;;;;;;;;;5042556;28;20135;-74
2022/01/24 05:05:18;;;;;;;51.15;9.45;;;;;;;;;;5063417;28;20032;-74
2022/01/24 05:07:44;;;;;;;46.22;9.35;;;;;;;;;;5060904;28;20500;-74
2022/01/24 05:10:30;;;;;;;42.75;10.20;;;;;;;;;;5064559;28;20480;-74
2022/01/24 05:23:51;;;;;;;51.67;12.43;;;;;;;;;;5062250;28;20029;-73
2022/01/24 05:26:17;;;;;;;53.53;13.20;;;;;;;;;;5065469;28;20047;-75
2022/01/24 05:28:42;;;;;;;39.30;12.23;;;;;;;;;;5062807;28;20042;-74
2022/01/24 05:31:08;;;;;;;34.55;12.65;;;;;;;;;;5062704;28;20085;-73
2022/01/24 05:33:34;;;;;;;66.57;13.98;;;;;;;;;;5045003;28;20043;-73
2022/01/24 05:35:59;;;;;;;66.38;13.25;;;;;;;;;;5064081;28;20783;-73
2022/01/24 05:38:25;;;;;;;54.88;13.82;;;;;;;;;;5062757;28;20039;-74
2022/01/24 05:40:51;;;;;;;45.97;16.80;;;;;;;;;;5063198;28;20067;-73
2022/01/24 05:43:17;;;;;;;42.50;13.93;;;;;;;;;;5063812;28;20032;-73
2022/01/24 05:45:42;;;;;;;31.05;13.45;;;;;;;;;;5062618;28;20032;-73
2022/01/24 05:48:08;;;;;;;61.83;14.00;;;;;;;;;;5062285;28;20036;-73
2022/01/24 05:50:34;;;;;;;38.92;12.13;;;;;;;;;;5063290;28;20028;-74
2022/01/24 05:53:00;;;;;;;46.53;12.52;;;;;;;;;;5045298;28;20501;-73
2022/01/24 05:55:26;;;;;;;104.90;12.75;;;;;;;;;;5061538;28;20055;-74
2022/01/24 05:57:54;;;;;;;31.33;12.27;;;;;;;;;;5044191;28;20409;-74
2022/01/24 06:00:21;;;;;;;27.42;11.70;;;;;;;;;;5062758;28;20043;-74
2022/01/24 06:02:47;;;;;;;27.75;11.32;;;;;;;;;;5045244;28;20067;-74
2022/01/24 06:05:13;;;;;;;39.28;12.50;;;;;;;;;;5063382;28;20649;-73
2022/01/24 06:07:38;;;;;;;28.67;10.88;;;;;;;;;;5062557;28;20058;-74
2022/01/24 06:10:05;;;;;;;33.38;10.73;;;;;;;;;;5063232;28;20059;-75
2022/01/24 06:12:31;;;;;;;33.30;11.00;;;;;;;;;;5061747;28;20037;-74
2022/01/24 06:14:57;;;;;;;34.60;10.88;;;;;;;;;;5061278;28;20044;-74
2022/01/24 06:17:22;;;;;;;54.20;11.98;;;;;;;;;;5061387;28;20044;-74
2022/01/24 06:19:48;;;;;;;26.98;10.63;;;;;;;;;;5062630;28;20040;-74
2022/01/24 06:22:13;;;;;;;22.98;10.73;;;;;;;;;;5074731;28;20098;-74
2022/01/24 06:24:39;;;;;;;16.25;10.02;;;;;;;;;;5061174;28;20048;-74
2022/01/24 06:27:04;;;;;;;26.38;11.18;;;;;;;;;;5060380;28;20067;-73
2022/01/24 06:29:30;;;;;;;32.30;10.02;;;;;;;;;;5061983;28;20032;-74
2022/01/24 06:31:55;;;;;;;45.25;10.45;;;;;;;;;;5062196;28;20020;-73
2022/01/24 06:34:21;;;;;;;36.70;10.57;;;;;;;;;;5063807;28;20152;-73
2022/01/24 06:36:46;;;;;;;27.30;12.15;;;;;;;;;;5060293;28;20099;-73
2022/01/24 06:39:14;;;;;;;22.88;11.15;;;;;;;;;;5060120;28;20067;-73
2022/01/24 06:41:41;;;;;;;28.38;11.85;;;;;;;;;;5059187;28;20091;-73
2022/01/24 06:44:07;;;;;;;32.40;12.20;;;;;;;;;;5061028;28;20055;-73
2022/01/24 06:46:32;;;;;;;25.77;11.13;;;;;;;;;;5042962;28;20490;-73
2022/01/24 06:48:58;;;;;;;21.23;11.75;;;;;;;;;;5059278;28;20043;-74
2022/01/24 06:51:23;;;;;;;28.63;13.10;;;;;;;;;;5060053;28;20040;-73
2022/01/24 06:53:51;;;;;;;27.27;12.40;;;;;;;;;;5062144;28;20036;-73
2022/01/24 06:56:17;;;;;;;61.72;14.43;;;;;;;;;;5044175;28;20036;-72
2022/01/24 06:58:43;;;;;;;35.10;12.93;;;;;;;;;;5062245;28;20032;-74
2022/01/24 07:01:08;;;;;;;46.15;13.73;;;;;;;;;;5042912;28;20507;-73
2022/01/24 07:03:34;;;;;;;30.52;13.18;;;;;;;;;;5062129;28;20074;-73
2022/01/24 07:06:00;;;;;;;28.67;13.40;;;;;;;;;;5044068;28;20039;-73
2022/01/24 07:08:26;;;;;;;29.90;12.63;;;;;;;;;;5057303;28;20044;-73
2022/01/24 07:10:52;;;;;;;30.48;14.63;;;;;;;;;;5058677;28;20036;-74
2022/01/24 07:13:21;;;;;;;52.20;15.32;;;;;;;;;;5059473;28;20044;-73
2022/01/24 07:15:52;;;;;;;36.67;14.77;;;;;;;;;;5043696;28;20044;-73
2022/01/24 07:20:59;;;;;;;51.78;19.90;;;;;;;;;;5060131;28;20043;-73
2022/01/24 07:23:24;;;;;;;69.57;21.42;;;;;;;;;;5059058;28;20565;-74
2022/01/24 07:25:50;;;;;;;79.90;17.75;;;;;;;;;;5043506;28;20032;-74
2022/01/24 07:28:16;;;;;;;76.75;17.98;;;;;;;;;;5042097;28;20040;-74
2022/01/24 07:30:43;;;;;;;46.08;16.33;;;;;;;;;;5042234;28;20037;-73
2022/01/24 07:33:08;;;;;;;43.55;15.38;;;;;;;;;;5043187;28;20037;-74
2022/01/24 07:35:34;;;;;;;40.90;15.02;;;;;;;;;;5042029;28;20586;-74
2022/01/24 07:38:00;;;;;;;42.50;15.20;;;;;;;;;;5057575;28;20136;-75
2022/01/24 07:40:26;;;;;;;36.35;14.75;;;;;;;;;;5037150;28;20040;-72
2022/01/24 07:42:58;;;;;;;35.08;14.93;;;;;;;;;;5041877;28;21150;-73
2022/01/24 07:45:26;;;;;;;41.72;15.55;;;;;;;;;;5058262;28;20389;-74
2022/01/24 07:47:55;;;;;;;75.47;16.45;;;;;;;;;;5061782;28;20040;-75
2022/01/24 07:50:25;;;;;;;61.95;16.52;;;;;;;;;;5061130;28;20048;-77
2022/01/24 07:52:50;;;;;;;54.35;15.63;;;;;;;;;;5062509;28;20036;-78
2022/01/24 07:55:16;;;;;;;70.13;17.77;;;;;;;;;;5044999;28;20041;-76
2022/01/24 07:57:42;;;;;;;56.72;16.73;;;;;;;;;;5065173;28;20025;-77
2022/01/24 08:00:10;;;;;;;57.30;16.83;;;;;;;;;;5067884;28;20044;-76
2022/01/24 08:02:39;;;;;;;98.03;16.70;;;;;;;;;;5062683;28;20032;-77
2022/01/24 08:05:07;;;;;;;79.40;14.35;;;;;;;;;;5061289;28;20340;-77
2022/01/24 08:07:32;;;;;;;70.82;14.13;;;;;;;;;;5061091;28;20040;-77
2022/01/24 08:09:57;;;;;;;81.40;14.82;;;;;;;;;;5063935;28;20035;-78
2022/01/24 08:12:24;;;;;;;86.90;15.88;;;;;;;;;;5063077;28;20037;-78
2022/01/24 08:14:49;;;;;;;68.63;13.75;;;;;;;;;;5043475;28;20033;-76
2022/01/24 08:17:15;;;;;;;63.88;14.73;;;;;;;;;;5062264;28;20397;-78
2022/01/24 08:19:40;;;;;;;88.85;14.32;;;;;;;;;;5060418;28;20173;-74
2022/01/24 08:22:06;;;;;;;130.52;15.65;;;;;;;;;;5061143;28;20028;-75
2022/01/24 08:24:32;;;;;;;51.20;13.60;;;;;;;;;;5060469;28;20036;-75
2022/01/24 08:26:57;;;;;;;52.42;12.73;;;;;;;;;;5060585;28;20174;-76
2022/01/24 08:29:23;;;;;;;93.10;14.98;;;;;;;;;;5034354;28;20127;-77
2022/01/24 08:31:49;;;;;;;123.28;15.07;;;;;;;;;;5061678;28;20094;-77
2022/01/24 08:34:15;;;;;;;148.98;16.13;;;;;;;;;;5047564;28;20036;-78
2022/01/24 08:36:40;;;;;;;126.03;13.85;;;;;;;;;;5061816;28;20086;-76
2022/01/24 08:39:08;;;;;;;110.25;16.17;;;;;;;;;;5061958;28;20125;-76
2022/01/24 08:41:58;;;;;;;129.50;15.95;;;;;;;;;;5061153;28;20043;-75
2022/01/24 08:46:50;;;;;;;54.38;13.48;;;;;;;;;;5063443;28;20036;-75
2022/01/24 08:49:16;;;;;;;76.57;14.85;;;;;;;;;;5065843;28;20413;-77
2022/01/24 08:51:42;;;;;;;100.40;16.80;;;;;;;;;;5046425;28;20036;-75
2022/01/24 08:54:09;;;;;;;86.20;16.13;;;;;;;;;;5063558;28;20469;-73
2022/01/24 08:56:35;;;;;;;68.88;16.92;;;;;;;;;;5064531;28;20036;-75
2022/01/24 08:59:06;;;;;;;108.85;17.42;;;;;;;;;;5063941;28;20074;-77
2022/01/24 09:01:32;;;;;;;116.60;16.45;;;;;;;;;;5047086;28;20051;-77
2022/01/24 09:03:58;;;;;;;98.68;15.77;;;;;;;;;;5066884;28;20040;-76
2022/01/24 09:06:24;;;;;;;81.63;14.50;;;;;;;;;;5064254;28;20068;-77
2022/01/24 09:08:55;;;;;;;73.22;14.52;;;;;;;;;;5060361;28;20040;-75
2022/01/24 09:11:34;;;;;;;56.90;14.57;;;;;;;;;;5063467;28;20030;-77
2022/01/24 09:14:01;;;;;;;83.05;13.93;;;;;;;;;;5063229;28;20024;-74
2022/01/24 09:16:27;;;;;;;52.78;11.90;;;;;;;;;;5063145;28;20043;-74
2022/01/24 09:18:53;;;;;;;36.33;12.32;;;;;;;;;;5071408;28;20040;-73
2022/01/24 09:21:19;;;;;;;36.13;13.27;;;;;;;;;;5053962;28;20711;-75
2022/01/24 09:23:44;;;;;;;29.73;12.63;;;;;;;;;;5059645;28;20024;-76
2022/01/24 09:26:10;;;;;;;34.28;12.20;;;;;;;;;;5062265;28;20051;-76
2022/01/24 09:28:35;;;;;;;37.53;12.20;;;;;;;;;;5061462;28;20052;-76
2022/01/24 09:31:01;;;;;;;51.22;11.77;;;;;;;;;;5065987;28;20020;-78
2022/01/24 09:33:27;;;;;;;58.90;12.30;;;;;;;;;;5068316;28;20539;-75
2022/01/24 09:35:58;;;;;;;41.08;11.77;;;;;;;;;;5062672;28;20036;-76
2022/01/24 09:38:26;;;;;;;41.03;11.87;;;;;;;;;;5064488;28;20082;-77
2022/01/24 09:40:57;;;;;;;21.75;10.77;;;;;;;;;;5062612;28;20763;-76
2022/01/24 09:43:23;;;;;;;26.50;12.48;;;;;;;;;;5062243;28;20036;-74
2022/01/24 09:45:48;;;;;;;20.75;11.82;;;;;;;;;;5063012;28;20037;-73
2022/01/24 09:48:16;;;;;;;32.55;11.98;;;;;;;;;;5063805;28;20374;-75
2022/01/24 09:50:43;;;;;;;34.35;12.43;;;;;;;;;;5063574;28;20047;-77
2022/01/24 09:53:08;;;;;;;20.17;9.63;;;;;;;;;;5061691;28;20036;-76
2022/01/24 09:55:34;;;;;;;87.45;11.25;;;;;;;;;;5062243;28;20047;-76
2022/01/24 09:57:59;;;;;;;28.00;9.98;;;;;;;;;;5061772;28;20507;-74
2022/01/24 10:00:27;;;;;;;90.28;12.40;;;;;;;;;;5061954;28;20062;-74
2022/01/24 10:02:54;;;;;;;27.13;11.35;;;;;;;;;;5061574;28;20515;-74
2022/01/24 10:05:25;;;;;;;33.67;10.93;;;;;;;;;;5056168;28;20072;-74
2022/01/24 10:07:57;;;;;;;30.33;12.05;;;;;;;;;;5064891;28;20055;-77
2022/01/24 10:10:50;;;;;;;37.42;10.90;;;;;;;;;;5061872;28;20037;-75
2022/01/24 10:16:24;;;;;;;26.40;11.98;;;;;;;;;;5078286;28;20048;-76
2022/01/24 10:19:05;;;;;;;33.30;10.63;;;;;;;;;;5060975;28;20095;-75
2022/01/24 10:21:51;;;;;;;35.30;12.13;;;;;;;;;;5048690;28;20082;-74
2022/01/24 10:24:26;;;;;;;29.52;12.88;;;;;;;;;;5058178;28;20037;-73
2022/01/24 10:27:28;;;;;;;24.27;11.43;;;;;;;;;;5062844;28;20059;-74
2022/01/24 10:29:55;;;;;;;;;;;;;;;;;;5023277;28;20029;-76
2022/01/24 10:32:33;;;;;;;28.88;10.73;;;;;;;;;;5058181;28;19926;-74
2022/01/24 10:35:23;;;;;;;24.25;10.98;;;;;;;;;;5063129;28;20064;-74
2022/01/24 10:38:12;;;;;;;23.00;10.40;;;;;;;;;;5062952;28;20079;-75
2022/01/24 10:40:53;;;;;;;18.75;10.55;;;;;;;;;;5045898;28;20044;-79
2022/01/24 10:43:25;;;;;;;21.88;11.48;;;;;;;;;;5064218;28;20320;-77
2022/01/24 10:45:54;;;;;;;28.77;13.40;;;;;;;;;;5063890;28;21386;-78
2022/01/24 10:48:22;;;;;;;27.45;11.55;;;;;;;;;;5062531;28;20113;-77
2022/01/24 10:50:47;;;;;;;27.77;10.82;;;;;;;;;;5062714;28;20537;-76
2022/01/24 10:53:15;;;;;;;29.30;12.50;;;;;;;;;;5055023;28;20156;-76
2022/01/24 10:55:43;;;;;;;28.17;12.65;;;;;;;;;;5064716;28;20032;-80
2022/01/24 10:58:16;;;;;;;34.53;11.93;;;;;;;;;;5057879;28;20072;-76
2022/01/24 11:00:43;;;;;;;42.83;13.98;;;;;;;;;;5063435;28;20044;-77
2022/01/24 11:03:19;;;;;;;46.45;13.73;;;;;;;;;;5061204;28;20060;-77
2022/01/24 11:05:46;;;;;;;32.88;13.82;;;;;;;;;;5062585;28;20028;-77
2022/01/24 11:08:14;;;;;;;38.70;12.88;;;;;;;;;;5057003;28;20044;-78
2022/01/24 11:10:43;;;;;;;48.75;13.73;;;;;;;;;;5061379;28;20127;-76
2022/01/24 11:13:10;;;;;;;35.92;14.80;;;;;;;;;;5061173;28;20044;-77
2022/01/24 11:16:00;;;;;;;28.65;13.30;;;;;;;;;;5061297;28;20036;-77
2022/01/24 11:18:27;;;;;;;15.23;9.40;;;;;;;;;;5063388;28;20143;-78
2022/01/24 11:21:01;;;;;;;26.70;14.00;;;;;;;;;;5062900;28;20435;-78
2022/01/24 11:23:31;;;;;;;23.05;13.25;;;;;;;;;;5064084;28;20445;-76
2022/01/24 11:26:01;;;;;;;33.95;13.65;;;;;;;;;;5048841;28;20040;-75
2022/01/24 11:28:27;;;;;;;22.10;13.00;;;;;;;;;;5061855;28;20047;-76
2022/01/24 11:31:06;;;;;;;28.33;14.38;;;;;;;;;;5062046;28;20032;-76
2022/01/24 11:33:37;;;;;;;29.92;12.75;;;;;;;;;;5062889;28;20530;-80
2022/01/24 11:36:05;;;;;;;33.00;13.52;;;;;;;;;;5059770;28;20040;-77
2022/01/24 11:38:38;;;;;;;17.48;11.95;;;;;;;;;;5060097;28;20044;-76
2022/01/24 11:41:34;;;;;;;23.67;12.63;;;;;;;;;;5061953;28;20580;-76
2022/01/24 11:44:10;;;;;;;19.55;13.30;;;;;;;;;;5060317;28;20031;-76
2022/01/24 11:46:47;;;;;;;21.95;13.20;;;;;;;;;;5059222;28;20050;-76
2022/01/24 11:49:15;;;;;;;27.35;13.13;;;;;;;;;;5043564;28;20090;-77
2022/01/24 11:51:43;;;;;;;23.60;12.13;;;;;;;;;;5061564;28;20070;-76
2022/01/24 11:54:42;;;;;;;20.17;11.05;;;;;;;;;;5061255;28;20151;-78
2022/01/24 11:57:17;;;;;;;18.42;11.63;;;;;;;;;;5058806;28;20041;-78
2022/01/24 11:59:43;;;;;;;24.10;12.93;;;;;;;;;;5041219;28;20036;-79
2022/01/24 12:02:11;;;;;;;21.73;13.07;;;;;;;;;;5032959;28;20044;-77
2022/01/24 12:04:56;;;;;;;22.45;13.48;;;;;;;;;;5058167;28;20032;-79
2022/01/24 12:07:26;;;;;;;23.95;13.52;;;;;;;;;;5058577;28;20033;-76
2022/01/24 12:09:53;;;;;;;26.83;14.30;;;;;;;;;;5057527;28;20075;-76
2022/01/24 12:12:45;;;;;;;28.15;15.48;;;;;;;;;;5057661;28;20059;-77
2022/01/24 12:15:36;;;;;;;35.58;16.50;;;;;;;;;;5060254;28;20493;-76
2022/01/24 12:18:12;;;;;;;25.23;13.43;;;;;;;;;;5059426;28;20063;-76
2022/01/24 12:20:37;;;;;;;21.95;12.75;;;;;;;;;;5059514;28;20052;-76
2022/01/24 12:23:24;;;;;;;26.35;13.38;;;;;;;;;;5059114;28;20032;-76
2022/01/24 12:26:01;;;;;;;26.63;15.68;;;;;;;;;;5056963;28;20045;-76
2022/01/24 12:28:42;;;;;;;25.60;13.93;;;;;;;;;;5038916;28;20369;-75
2022/01/24 12:31:29;;;;;;;25.25;14.38;;;;;;;;;;5048210;28;20040;-75
2022/01/24 12:33:55;;;;;;;25.90;16.63;;;;;;;;;;5041490;28;20032;-75
2022/01/24 12:39:14;;;;;;;24.98;14.27;;;;;;;;;;5058247;28;20040;-75
2022/01/24 12:41:47;;;;;;;29.05;17.33;;;;;;;;;;5059075;28;20697;-75
2022/01/24 12:47:05;;;;;;;25.38;14.90;;;;;;;;;;5056713;28;20032;-74
2022/01/24 12:49:32;;;;;;;24.52;13.55;;;;;;;;;;5058772;28;20596;-74
2022/01/24 12:52:10;;;;;;;24.00;14.63;;;;;;;;;;5057729;28;20089;-74
2022/01/24 12:54:39;;;;;;;27.55;15.00;;;;;;;;;;5058601;28;20040;-74
2022/01/24 12:57:10;;;;;;;26.98;15.05;;;;;;;;;;5059771;28;20392;-74
2022/01/24 12:59:37;;;;;;;27.30;16.95;;;;;;;;;;5058129;28;20755;-75
2022/01/24 13:02:05;;;;;;;24.83;14.10;;;;;;;;;;5042182;28;20770;-78
2022/01/24 13:04:39;;;;;;;22.23;12.98;;;;;;;;;;5058313;28;20199;-74
2022/01/24 13:07:09;;;;;;;20.08;13.02;;;;;;;;;;5045458;28;20032;-79
2022/01/24 13:09:36;;;;;;;19.10;12.65;;;;;;;;;;5041036;28;20068;-74
2022/01/24 13:12:09;;;;;;;21.27;13.45;;;;;;;;;;5057784;28;20032;-74
2022/01/24 13:14:46;;;;;;;21.73;13.65;;;;;;;;;;5059728;28;20068;-74
2022/01/24 13:22:58;;;;;;;19.00;12.35;;;;;;;;;;5058411;28;20032;-77
2022/01/24 13:25:30;;;;;;;19.73;12.07;;;;;;;;;;5057143;28;20036;-76
2022/01/24 13:28:03;;;;;;;17.75;10.80;;;;;;;;;;5057503;28;20033;-77
2022/01/24 13:30:36;;;;;;;18.83;11.63;;;;;;;;;;5062250;28;20520;-79
2022/01/24 13:33:23;;;;;;;21.48;13.27;;;;;;;;;;5044134;28;20036;-76
2022/01/24 13:36:00;;;;;;;20.27;11.98;;;;;;;;;;5059452;28;20123;-74
2022/01/24 13:38:28;;;;;;;22.50;13.98;;;;;;;;;;5058912;28;20097;-73
2022/01/24 13:41:13;;;;;;;24.02;14.93;;;;;;;;;;5060896;28;20024;-74
2022/01/24 13:43:45;;;;;;;22.20;13.95;;;;;;;;;;5061601;28;20029;-75
2022/01/24 13:46:18;;;;;;;;;;;;;;;;;;5062139;28;20127;-75
2022/01/24 13:48:48;;;;;;;24.85;13.35;;;;;;;;;;5061893;28;19916;-75
2022/01/24 13:51:19;;;;;;;26.35;14.68;;;;;;;;;;5062055;28;20046;-73
2022/01/24 13:53:56;;;;;;;20.92;13.75;;;;;;;;;;5061372;28;20036;-74
2022/01/24 13:56:33;;;;;;;25.50;14.85;;;;;;;;;;5062174;28;20032;-75
2022/01/24 13:59:09;;;;;;;22.25;13.80;;;;;;;;;;5062821;28;20033;-75
2022/01/24 14:01:50;;;;;;;23.45;13.63;;;;;;;;;;5060733;28;20511;-74
2022/01/24 14:04:46;;;;;;;25.02;13.77;;;;;;;;;;5060509;28;20032;-74
2022/01/24 14:07:20;;;;;;;23.90;13.85;;;;;;;;;;5050557;28;20051;-74
2022/01/24 14:09:57;;;;;;;26.13;13.27;;;;;;;;;;5062550;28;20056;-76
2022/01/24 14:12:31;;;;;;;25.73;14.35;;;;;;;;;;5046612;28;20036;-75
2022/01/24 14:15:09;;;;;;;28.15;15.68;;;;;;;;;;5060814;28;20037;-75
2022/01/24 14:20:10;;;;;;;27.67;15.82;;;;;;;;;;5045280;28;20024;-75
2022/01/24 14:22:51;;;;;;;31.08;18.23;;;;;;;;;;5060775;28;20056;-74
2022/01/24 14:25:23;;;;;;;34.80;16.75;;;;;;;;;;5061439;28;20028;-70
2022/01/24 14:28:07;;;;;;;25.42;14.68;;;;;;;;;;5060041;28;20036;-75
2022/01/24 14:30:40;;;;;;;35.00;20.15;;;;;;;;;;5060408;28;20071;-75
2022/01/24 14:33:22;;;;;;;32.10;18.85;;;;;;;;;;5061193;28;20078;-74
2022/01/24 14:35:56;;;;;;;30.52;16.77;;;;;;;;;;5059205;28;20501;-76
2022/01/24 14:38:34;;;;;;;30.25;16.80;;;;;;;;;;5058168;28;20123;-74
2022/01/24 14:41:45;;;;;;;56.97;28.30;;;;;;;;;;5059219;28;20588;-75
2022/01/24 14:46:59;;;;;;;49.10;24.27;;;;;;;;;;5059876;28;20036;-73
2022/01/24 14:49:31;;;;;;;38.22;18.80;;;;;;;;;;5059624;28;20029;-78
2022/01/24 14:52:05;;;;;;;39.20;19.55;;;;;;;;;;5060913;28;20032;-76
2022/01/24 14:54:34;;;;;;;41.08;19.73;;;;;;;;;;5043304;28;20112;-76
2022/01/24 14:57:03;;;;;;;52.35;20.20;;;;;;;;;;5060735;28;20123;-77
2022/01/24 14:59:29;;;;;;;42.45;20.67;;;;;;;;;;5058739;28;20045;-76
2022/01/24 15:01:56;;;;;;;34.90;19.27;;;;;;;;;;5055786;28;20031;-75
2022/01/24 15:04:23;;;;;;;43.15;23.85;;;;;;;;;;5074731;28;20202;-77
2022/01/24 15:06:51;;;;;;;38.72;20.92;;;;;;;;;;5060100;28;20032;-76
2022/01/24 15:09:21;;;;;;;32.00;16.65;;;;;;;;;;5059046;28;20059;-76
2022/01/24 15:11:51;;;;;;;32.15;17.70;;;;;;;;;;5057928;28;20139;-74
2022/01/24 15:14:23;;;;;;;44.20;20.02;;;;;;;;;;5057665;28;20091;-75
2022/01/24 15:17:11;;;;;;;;;;;;;;;;;;5058554;28;20570;-74
2022/01/24 15:27:44;;;;;;;81.22;19.90;;;;;;;;;;5060677;28;20447;-75
2022/01/24 15:30:12;;;;;;;121.43;23.92;;;;;;;;;;5058230;28;20036;-75
2022/01/24 15:32:37;;;;;;;165.68;26.65;;;;;;;;;;5027106;28;20044;-75
2022/01/24 15:35:04;;;;;;;97.03;21.50;;;;;;;;;;5059902;28;20024;-76
2022/01/24 15:37:33;;;;;;;71.80;18.52;;;;;;;;;;5060985;28;20573;-77
2022/01/24 15:40:03;;;;;;;86.05;20.27;;;;;;;;;;5060494;28;20028;-75
2022/01/24 15:42:43;;;;;;;138.13;20.63;;;;;;;;;;5058915;28;20148;-75
2022/01/24 15:50:13;;;;;;;164.73;21.05;;;;;;;;;;5060197;28;20066;-73
2022/01/24 15:52:39;;;;;;;;;;;;;;;;;;5060454;28;20036;-74
2022/01/24 15:55:08;;;;;;;114.60;21.10;;;;;;;;;;5075821;28;21026;-73
2022/01/24 15:57:40;;;;;;;118.22;21.63;;;;;;;;;;5057836;28;20063;-72
2022/01/24 16:00:13;;;;;;;110.57;23.88;;;;;;;;;;5057688;28;20127;-72
2022/01/24 16:02:44;;;;;;;178.20;24.90;;;;;;;;;;5058206;28;20078;-72
2022/01/24 16:05:12;;;;;;;102.38;21.70;;;;;;;;;;5056490;28;20028;-72
2022/01/24 16:07:41;;;;;;;154.75;21.63;;;;;;;;;;5056652;28;20067;-72
2022/01/24 16:10:13;;;;;;;69.75;19.48;;;;;;;;;;5058731;28;20036;-72
2022/01/24 16:12:45;;;;;;;81.13;19.55;;;;;;;;;;5059685;28;20102;-72
2022/01/24 16:15:13;;;;;;;147.48;20.35;;;;;;;;;;5060003;28;20040;-72
2022/01/24 16:17:40;;;;;;;136.13;19.30;;;;;;;;;;5058529;28;20040;-72
2022/01/24 16:20:26;;;;;;;113.03;17.67;;;;;;;;;;5058761;28;20040;-71
2022/01/24 16:25:36;;;;;;;114.28;21.92;;;;;;;;;;5059940;28;20029;-75
2022/01/24 16:28:12;;;;;;;103.45;20.40;;;;;;;;;;5058517;28;20032;-72
2022/01/24 16:30:44;;;;;;;143.93;33.05;;;;;;;;;;5059699;28;20036;-72
2022/01/24 16:33:10;;;;;;;134.32;25.40;;;;;;;;;;5060374;28;20032;-72
2022/01/24 16:35:37;;;;;;;76.57;25.80;;;;;;;;;;5060021;28;20074;-75
2022/01/24 16:38:05;;;;;;;102.25;22.58;;;;;;;;;;5058418;28;20036;-75
2022/01/24 16:40:41;;;;;;;64.75;19.30;;;;;;;;;;5060067;28;20112;-76
2022/01/24 16:48:37;;;;;;;111.20;20.52;;;;;;;;;;5059060;28;20407;-72
2022/01/24 16:51:05;;;;;;;61.63;22.00;;;;;;;;;;5057988;28;20047;-72
2022/01/24 16:53:32;;;;;;;96.07;21.80;;;;;;;;;;5066006;28;20070;-75
2022/01/24 16:55:59;;;;;;;203.07;32.45;;;;;;;;;;5060716;28;20477;-71
2022/01/24 16:58:27;;;;;;;135.05;28.02;;;;;;;;;;5059809;28;20541;-72
2022/01/24 17:00:54;;;;;;;127.03;27.88;;;;;;;;;;5059945;28;20040;-76
2022/01/24 17:03:21;;;;;;;167.68;26.90;;;;;;;;;;5062145;28;20385;-71
2022/01/24 17:05:47;;;;;;;133.65;25.10;;;;;;;;;;5063174;28;20043;-74